sensor_id;sensor_type;location;lat;lon;timestamp;P1;durP1;ratioP1;P2;durP2;ratioP2
19043;SDS011;9654;52.302;8.120;2023-07-22T00:00:02;16.47;;;7.17;;
19043;SDS011;9654;52.302;8.120;2023-07-22T00:02:31;13.57;;;8.07;;
19043;SDS011;9654;52.302;8.120;2023-07-22T00:04:57;13.63;;;7.77;;
19043;SDS011;9654;52.302;8.120;2023-07-22T00:07:24;14.17;;;7.03;;
19043;SDS011;9654;52.302;8.120;2023-07-22T00:09:51;15.77;;;7.87;;
19043;SDS011;9654;52.302;8.120;2023-07-22T00:12:18;12.97;;;7.37;;
19043;SDS011;9654;52.302;8.120;2023-07-22T00:14:45;14.20;;;7.80;;
19043;SDS011;9654;52.302;8.120;2023-07-22T00:17:13;17.93;;;7.97;;
19043;SDS011;9654;52.302;8.120;2023-07-22T00:19:39;21.13;;;7.97;;
19043;SDS011;9654;52.302;8.120;2023-07-22T00:22:06;15.50;;;6.97;;
19043;SDS011;9654;52.302;8.120;2023-07-22T00:24:33;13.37;;;7.40;;
19043;SDS011;9654;52.302;8.120;2023-07-22T00:27:00;17.93;;;8.13;;
19043;SDS011;9654;52.302;8.120;2023-07-22T00:29:26;14.80;;;7.13;;
19043;SDS011;9654;52.302;8.120;2023-07-22T00:31:53;13.73;;;7.83;;
19043;SDS011;9654;52.302;8.120;2023-07-22T00:34:21;15.10;;;7.73;;
19043;SDS011;9654;52.302;8.120;2023-07-22T00:36:48;12.63;;;7.07;;
19043;SDS011;9654;52.302;8.120;2023-07-22T00:39:15;14.57;;;7.87;;
19043;SDS011;9654;52.302;8.120;2023-07-22T00:41:42;13.97;;;7.53;;
19043;SDS011;9654;52.302;8.120;2023-07-22T00:44:09;14.73;;;8.20;;
19043;SDS011;9654;52.302;8.120;2023-07-22T00:46:36;13.07;;;7.23;;
19043;SDS011;9654;52.302;8.120;2023-07-22T00:49:04;12.90;;;7.67;;
19043;SDS011;9654;52.302;8.120;2023-07-22T00:51:34;16.53;;;8.27;;
19043;SDS011;9654;52.302;8.120;2023-07-22T00:54:01;16.27;;;8.83;;
19043;SDS011;9654;52.302;8.120;2023-07-22T00:56:29;13.17;;;8.00;;
19043;SDS011;9654;52.302;8.120;2023-07-22T00:58:58;14.97;;;7.97;;
19043;SDS011;9654;52.302;8.120;2023-07-22T01:01:25;15.17;;;8.07;;
19043;SDS011;9654;52.302;8.120;2023-07-22T01:03:52;14.53;;;7.53;;
19043;SDS011;9654;52.302;8.120;2023-07-22T01:06:19;16.93;;;8.77;;
19043;SDS011;9654;52.302;8.120;2023-07-22T01:08:47;16.20;;;8.60;;
19043;SDS011;9654;52.302;8.120;2023-07-22T01:11:14;14.73;;;8.00;;
19043;SDS011;9654;52.302;8.120;2023-07-22T01:13:41;17.13;;;9.00;;
19043;SDS011;9654;52.302;8.120;2023-07-22T01:16:08;17.73;;;8.93;;
19043;SDS011;9654;52.302;8.120;2023-07-22T01:18:35;20.30;;;10.10;;
19043;SDS011;9654;52.302;8.120;2023-07-22T01:21:02;19.10;;;9.83;;
19043;SDS011;9654;52.302;8.120;2023-07-22T01:23:30;19.70;;;8.90;;
19043;SDS011;9654;52.302;8.120;2023-07-22T01:25:57;18.83;;;9.43;;
19043;SDS011;9654;52.302;8.120;2023-07-22T01:28:25;15.47;;;8.53;;
19043;SDS011;9654;52.302;8.120;2023-07-22T01:30:52;19.70;;;9.20;;
19043;SDS011;9654;52.302;8.120;2023-07-22T01:33:19;16.00;;;9.10;;
19043;SDS011;9654;52.302;8.120;2023-07-22T01:35:46;16.83;;;9.17;;
19043;SDS011;9654;52.302;8.120;2023-07-22T01:38:13;17.73;;;8.80;;
19043;SDS011;9654;52.302;8.120;2023-07-22T01:40:41;16.27;;;9.40;;
19043;SDS011;9654;52.302;8.120;2023-07-22T01:43:08;18.63;;;9.93;;
19043;SDS011;9654;52.302;8.120;2023-07-22T01:45:34;19.97;;;8.77;;
19043;SDS011;9654;52.302;8.120;2023-07-22T01:48:02;18.63;;;8.83;;
19043;SDS011;9654;52.302;8.120;2023-07-22T01:50:30;16.30;;;8.90;;
19043;SDS011;9654;52.302;8.120;2023-07-22T01:52:56;16.20;;;8.83;;
19043;SDS011;9654;52.302;8.120;2023-07-22T01:55:23;16.27;;;9.20;;
19043;SDS011;9654;52.302;8.120;2023-07-22T01:57:51;17.43;;;9.10;;
19043;SDS011;9654;52.302;8.120;2023-07-22T02:00:18;19.67;;;9.60;;
19043;SDS011;9654;52.302;8.120;2023-07-22T02:02:46;20.70;;;10.27;;
19043;SDS011;9654;52.302;8.120;2023-07-22T02:05:13;19.13;;;9.47;;
19043;SDS011;9654;52.302;8.120;2023-07-22T02:07:39;16.87;;;9.97;;
19043;SDS011;9654;52.302;8.120;2023-07-22T02:10:06;19.13;;;9.97;;
19043;SDS011;9654;52.302;8.120;2023-07-22T02:12:34;18.77;;;9.53;;
19043;SDS011;9654;52.302;8.120;2023-07-22T02:15:03;20.77;;;9.87;;
19043;SDS011;9654;52.302;8.120;2023-07-22T02:17:30;18.53;;;9.70;;
19043;SDS011;9654;52.302;8.120;2023-07-22T02:19:57;15.87;;;8.73;;
19043;SDS011;9654;52.302;8.120;2023-07-22T02:22:24;20.30;;;9.67;;
19043;SDS011;9654;52.302;8.120;2023-07-22T02:24:51;17.57;;;9.07;;
19043;SDS011;9654;52.302;8.120;2023-07-22T02:27:18;18.33;;;9.43;;
19043;SDS011;9654;52.302;8.120;2023-07-22T02:29:44;24.40;;;9.90;;
19043;SDS011;9654;52.302;8.120;2023-07-22T02:32:13;20.60;;;9.30;;
19043;SDS011;9654;52.302;8.120;2023-07-22T02:34:40;20.43;;;9.07;;
19043;SDS011;9654;52.302;8.120;2023-07-22T02:37:06;20.43;;;9.23;;
19043;SDS011;9654;52.302;8.120;2023-07-22T02:39:33;17.83;;;8.63;;
19043;SDS011;9654;52.302;8.120;2023-07-22T02:42:00;19.40;;;9.27;;
19043;SDS011;9654;52.302;8.120;2023-07-22T02:44:27;16.00;;;8.90;;
19043;SDS011;9654;52.302;8.120;2023-07-22T02:46:53;15.80;;;8.43;;
19043;SDS011;9654;52.302;8.120;2023-07-22T02:49:21;18.43;;;9.17;;
19043;SDS011;9654;52.302;8.120;2023-07-22T02:51:49;17.40;;;8.57;;
19043;SDS011;9654;52.302;8.120;2023-07-22T02:54:15;17.40;;;8.97;;
19043;SDS011;9654;52.302;8.120;2023-07-22T02:56:42;19.47;;;8.83;;
19043;SDS011;9654;52.302;8.120;2023-07-22T02:59:09;15.30;;;8.87;;
19043;SDS011;9654;52.302;8.120;2023-07-22T03:01:36;15.70;;;8.07;;
19043;SDS011;9654;52.302;8.120;2023-07-22T03:04:04;14.97;;;8.07;;
19043;SDS011;9654;52.302;8.120;2023-07-22T03:06:32;16.10;;;8.00;;
19043;SDS011;9654;52.302;8.120;2023-07-22T03:08:59;16.93;;;9.00;;
19043;SDS011;9654;52.302;8.120;2023-07-22T03:11:26;19.07;;;9.73;;
19043;SDS011;9654;52.302;8.120;2023-07-22T03:13:53;17.87;;;8.93;;
19043;SDS011;9654;52.302;8.120;2023-07-22T03:16:19;15.13;;;8.10;;
19043;SDS011;9654;52.302;8.120;2023-07-22T03:18:46;13.97;;;8.30;;
19043;SDS011;9654;52.302;8.120;2023-07-22T03:21:13;18.20;;;8.70;;
19043;SDS011;9654;52.302;8.120;2023-07-22T03:23:41;13.80;;;8.07;;
19043;SDS011;9654;52.302;8.120;2023-07-22T03:26:08;21.20;;;9.53;;
19043;SDS011;9654;52.302;8.120;2023-07-22T03:28:35;16.93;;;8.50;;
19043;SDS011;9654;52.302;8.120;2023-07-22T03:31:01;17.10;;;8.90;;
19043;SDS011;9654;52.302;8.120;2023-07-22T03:33:29;18.63;;;9.27;;
19043;SDS011;9654;52.302;8.120;2023-07-22T03:35:56;18.47;;;8.57;;
19043;SDS011;9654;52.302;8.120;2023-07-22T03:38:22;21.50;;;9.13;;
19043;SDS011;9654;52.302;8.120;2023-07-22T03:40:51;16.33;;;8.90;;
19043;SDS011;9654;52.302;8.120;2023-07-22T03:43:19;18.77;;;10.03;;
19043;SDS011;9654;52.302;8.120;2023-07-22T03:45:45;19.97;;;9.17;;
19043;SDS011;9654;52.302;8.120;2023-07-22T03:48:12;18.40;;;10.17;;
19043;SDS011;9654;52.302;8.120;2023-07-22T03:50:39;22.87;;;10.37;;
19043;SDS011;9654;52.302;8.120;2023-07-22T03:53:06;16.73;;;8.83;;
19043;SDS011;9654;52.302;8.120;2023-07-22T03:55:33;20.33;;;10.33;;
19043;SDS011;9654;52.302;8.120;2023-07-22T03:58:01;18.20;;;9.40;;
19043;SDS011;9654;52.302;8.120;2023-07-22T04:00:28;18.23;;;9.97;;
19043;SDS011;9654;52.302;8.120;2023-07-22T04:02:55;17.57;;;9.53;;
19043;SDS011;9654;52.302;8.120;2023-07-22T04:05:22;17.40;;;9.47;;
19043;SDS011;9654;52.302;8.120;2023-07-22T04:07:49;20.33;;;10.63;;
19043;SDS011;9654;52.302;8.120;2023-07-22T04:10:16;20.47;;;10.20;;
19043;SDS011;9654;52.302;8.120;2023-07-22T04:12:42;18.40;;;9.63;;
19043;SDS011;9654;52.302;8.120;2023-07-22T04:15:11;16.87;;;9.20;;
19043;SDS011;9654;52.302;8.120;2023-07-22T04:17:38;20.33;;;10.13;;
19043;SDS011;9654;52.302;8.120;2023-07-22T04:20:05;17.50;;;9.57;;
19043;SDS011;9654;52.302;8.120;2023-07-22T04:22:34;18.70;;;9.77;;
19043;SDS011;9654;52.302;8.120;2023-07-22T04:25:00;21.07;;;10.60;;
19043;SDS011;9654;52.302;8.120;2023-07-22T04:27:27;16.07;;;9.07;;
19043;SDS011;9654;52.302;8.120;2023-07-22T04:29:54;20.17;;;9.80;;
19043;SDS011;9654;52.302;8.120;2023-07-22T04:32:22;18.07;;;8.93;;
19043;SDS011;9654;52.302;8.120;2023-07-22T04:34:49;22.23;;;9.17;;
19043;SDS011;9654;52.302;8.120;2023-07-22T04:37:16;14.50;;;9.27;;
19043;SDS011;9654;52.302;8.120;2023-07-22T04:39:46;19.67;;;9.30;;
19043;SDS011;9654;52.302;8.120;2023-07-22T04:42:14;23.33;;;10.50;;
19043;SDS011;9654;52.302;8.120;2023-07-22T04:44:41;19.40;;;11.30;;
19043;SDS011;9654;52.302;8.120;2023-07-22T04:47:09;19.77;;;10.10;;
19043;SDS011;9654;52.302;8.120;2023-07-22T04:49:37;23.97;;;10.63;;
19043;SDS011;9654;52.302;8.120;2023-07-22T04:52:05;19.63;;;10.17;;
19043;SDS011;9654;52.302;8.120;2023-07-22T04:54:32;18.83;;;10.30;;
19043;SDS011;9654;52.302;8.120;2023-07-22T04:56:59;21.07;;;10.17;;
19043;SDS011;9654;52.302;8.120;2023-07-22T04:59:27;18.97;;;10.47;;
19043;SDS011;9654;52.302;8.120;2023-07-22T05:01:54;23.93;;;10.57;;
19043;SDS011;9654;52.302;8.120;2023-07-22T05:04:21;17.97;;;9.50;;
19043;SDS011;9654;52.302;8.120;2023-07-22T05:06:50;17.10;;;9.73;;
19043;SDS011;9654;52.302;8.120;2023-07-22T05:09:17;18.43;;;10.17;;
19043;SDS011;9654;52.302;8.120;2023-07-22T05:11:44;18.70;;;9.50;;
19043;SDS011;9654;52.302;8.120;2023-07-22T05:14:10;20.33;;;10.50;;
19043;SDS011;9654;52.302;8.120;2023-07-22T05:16:37;19.23;;;10.60;;
19043;SDS011;9654;52.302;8.120;2023-07-22T05:19:04;18.87;;;10.63;;
19043;SDS011;9654;52.302;8.120;2023-07-22T05:21:33;29.73;;;11.53;;
19043;SDS011;9654;52.302;8.120;2023-07-22T05:24:01;20.90;;;10.40;;
19043;SDS011;9654;52.302;8.120;2023-07-22T05:26:28;18.60;;;11.20;;
19043;SDS011;9654;52.302;8.120;2023-07-22T05:28:56;25.67;;;10.27;;
19043;SDS011;9654;52.302;8.120;2023-07-22T05:31:22;20.17;;;10.60;;
19043;SDS011;9654;52.302;8.120;2023-07-22T05:33:49;23.17;;;10.90;;
19043;SDS011;9654;52.302;8.120;2023-07-22T05:36:16;19.93;;;10.40;;
19043;SDS011;9654;52.302;8.120;2023-07-22T05:38:43;23.57;;;10.77;;
19043;SDS011;9654;52.302;8.120;2023-07-22T05:41:11;22.50;;;10.73;;
19043;SDS011;9654;52.302;8.120;2023-07-22T05:43:38;20.23;;;10.53;;
19043;SDS011;9654;52.302;8.120;2023-07-22T05:46:04;18.37;;;10.57;;
19043;SDS011;9654;52.302;8.120;2023-07-22T05:48:31;19.03;;;10.23;;
19043;SDS011;9654;52.302;8.120;2023-07-22T05:50:58;22.27;;;10.77;;
19043;SDS011;9654;52.302;8.120;2023-07-22T05:53:25;22.30;;;11.90;;
19043;SDS011;9654;52.302;8.120;2023-07-22T05:55:52;18.93;;;11.07;;
19043;SDS011;9654;52.302;8.120;2023-07-22T05:58:20;23.27;;;11.83;;
19043;SDS011;9654;52.302;8.120;2023-07-22T06:00:47;20.50;;;11.50;;
19043;SDS011;9654;52.302;8.120;2023-07-22T06:03:14;18.70;;;10.97;;
19043;SDS011;9654;52.302;8.120;2023-07-22T06:05:41;23.03;;;11.77;;
19043;SDS011;9654;52.302;8.120;2023-07-22T06:08:08;24.60;;;12.73;;
19043;SDS011;9654;52.302;8.120;2023-07-22T06:10:35;23.33;;;12.33;;
19043;SDS011;9654;52.302;8.120;2023-07-22T06:13:03;21.93;;;11.90;;
19043;SDS011;9654;52.302;8.120;2023-07-22T06:15:31;22.53;;;11.23;;
19043;SDS011;9654;52.302;8.120;2023-07-22T06:17:58;23.20;;;11.93;;
19043;SDS011;9654;52.302;8.120;2023-07-22T06:20:25;24.17;;;11.87;;
19043;SDS011;9654;52.302;8.120;2023-07-22T06:22:52;21.20;;;13.07;;
19043;SDS011;9654;52.302;8.120;2023-07-22T06:25:18;21.60;;;12.07;;
19043;SDS011;9654;52.302;8.120;2023-07-22T06:27:45;21.00;;;11.73;;
19043;SDS011;9654;52.302;8.120;2023-07-22T06:30:12;23.67;;;12.53;;
19043;SDS011;9654;52.302;8.120;2023-07-22T06:32:40;26.33;;;12.67;;
19043;SDS011;9654;52.302;8.120;2023-07-22T06:35:07;18.73;;;11.10;;
19043;SDS011;9654;52.302;8.120;2023-07-22T06:37:34;21.40;;;12.53;;
19043;SDS011;9654;52.302;8.120;2023-07-22T06:40:01;25.43;;;13.07;;
19043;SDS011;9654;52.302;8.120;2023-07-22T06:42:29;25.63;;;12.23;;
19043;SDS011;9654;52.302;8.120;2023-07-22T06:44:56;20.47;;;11.77;;
19043;SDS011;9654;52.302;8.120;2023-07-22T06:47:22;18.90;;;11.17;;
19043;SDS011;9654;52.302;8.120;2023-07-22T06:49:50;18.17;;;10.87;;
19043;SDS011;9654;52.302;8.120;2023-07-22T06:52:17;20.60;;;10.83;;
19043;SDS011;9654;52.302;8.120;2023-07-22T06:54:44;21.70;;;11.83;;
19043;SDS011;9654;52.302;8.120;2023-07-22T06:57:11;22.47;;;12.73;;
19043;SDS011;9654;52.302;8.120;2023-07-22T06:59:38;23.47;;;13.37;;
19043;SDS011;9654;52.302;8.120;2023-07-22T07:02:05;22.20;;;11.93;;
19043;SDS011;9654;52.302;8.120;2023-07-22T07:04:31;21.50;;;11.80;;
19043;SDS011;9654;52.302;8.120;2023-07-22T07:07:00;21.93;;;11.73;;
19043;SDS011;9654;52.302;8.120;2023-07-22T07:09:27;22.20;;;11.63;;
19043;SDS011;9654;52.302;8.120;2023-07-22T07:11:54;21.77;;;12.17;;
19043;SDS011;9654;52.302;8.120;2023-07-22T07:14:21;20.17;;;10.47;;
19043;SDS011;9654;52.302;8.120;2023-07-22T07:16:49;22.43;;;11.87;;
19043;SDS011;9654;52.302;8.120;2023-07-22T07:19:15;22.90;;;12.70;;
19043;SDS011;9654;52.302;8.120;2023-07-22T07:21:42;19.37;;;12.07;;
19043;SDS011;9654;52.302;8.120;2023-07-22T07:24:10;19.77;;;11.33;;
19043;SDS011;9654;52.302;8.120;2023-07-22T07:26:37;21.77;;;11.93;;
19043;SDS011;9654;52.302;8.120;2023-07-22T07:29:04;21.70;;;11.70;;
19043;SDS011;9654;52.302;8.120;2023-07-22T07:31:30;26.23;;;13.03;;
19043;SDS011;9654;52.302;8.120;2023-07-22T07:33:57;22.27;;;12.67;;
19043;SDS011;9654;52.302;8.120;2023-07-22T07:36:24;22.17;;;12.67;;
19043;SDS011;9654;52.302;8.120;2023-07-22T07:38:51;25.10;;;13.23;;
19043;SDS011;9654;52.302;8.120;2023-07-22T07:41:19;26.03;;;13.20;;
19043;SDS011;9654;52.302;8.120;2023-07-22T07:43:47;25.47;;;13.83;;
19043;SDS011;9654;52.302;8.120;2023-07-22T07:46:14;26.27;;;13.47;;
19043;SDS011;9654;52.302;8.120;2023-07-22T07:48:43;24.40;;;13.07;;
19043;SDS011;9654;52.302;8.120;2023-07-22T07:51:11;26.40;;;13.87;;
19043;SDS011;9654;52.302;8.120;2023-07-22T07:53:39;25.60;;;12.63;;
19043;SDS011;9654;52.302;8.120;2023-07-22T07:56:06;23.20;;;13.37;;
19043;SDS011;9654;52.302;8.120;2023-07-22T07:58:34;25.27;;;13.97;;
19043;SDS011;9654;52.302;8.120;2023-07-22T08:01:02;25.90;;;13.43;;
19043;SDS011;9654;52.302;8.120;2023-07-22T08:03:28;27.93;;;14.67;;
19043;SDS011;9654;52.302;8.120;2023-07-22T08:05:55;24.80;;;12.93;;
19043;SDS011;9654;52.302;8.120;2023-07-22T08:08:22;21.93;;;12.20;;
19043;SDS011;9654;52.302;8.120;2023-07-22T08:10:56;23.53;;;13.53;;
19043;SDS011;9654;52.302;8.120;2023-07-22T08:13:24;21.10;;;11.53;;
19043;SDS011;9654;52.302;8.120;2023-07-22T08:15:53;20.70;;;11.73;;
19043;SDS011;9654;52.302;8.120;2023-07-22T08:18:20;20.77;;;12.27;;
19043;SDS011;9654;52.302;8.120;2023-07-22T08:20:46;20.83;;;12.57;;
19043;SDS011;9654;52.302;8.120;2023-07-22T08:23:13;23.90;;;11.93;;
19043;SDS011;9654;52.302;8.120;2023-07-22T08:25:40;18.63;;;11.70;;
19043;SDS011;9654;52.302;8.120;2023-07-22T08:28:07;18.60;;;12.37;;
19043;SDS011;9654;52.302;8.120;2023-07-22T08:30:34;20.03;;;11.60;;
19043;SDS011;9654;52.302;8.120;2023-07-22T08:33:02;20.00;;;11.77;;
19043;SDS011;9654;52.302;8.120;2023-07-22T08:35:29;16.90;;;9.50;;
19043;SDS011;9654;52.302;8.120;2023-07-22T08:37:56;15.67;;;8.83;;
19043;SDS011;9654;52.302;8.120;2023-07-22T08:40:22;15.43;;;8.70;;
19043;SDS011;9654;52.302;8.120;2023-07-22T08:42:49;14.90;;;8.47;;
19043;SDS011;9654;52.302;8.120;2023-07-22T08:45:16;14.90;;;8.50;;
19043;SDS011;9654;52.302;8.120;2023-07-22T08:47:44;17.10;;;8.50;;
19043;SDS011;9654;52.302;8.120;2023-07-22T08:50:15;15.23;;;8.30;;
19043;SDS011;9654;52.302;8.120;2023-07-22T08:52:46;14.90;;;7.60;;
19043;SDS011;9654;52.302;8.120;2023-07-22T08:55:14;14.80;;;8.47;;
19043;SDS011;9654;52.302;8.120;2023-07-22T08:57:41;11.43;;;7.63;;
19043;SDS011;9654;52.302;8.120;2023-07-22T09:00:08;14.63;;;8.20;;
19043;SDS011;9654;52.302;8.120;2023-07-22T09:02:36;13.20;;;7.87;;
19043;SDS011;9654;52.302;8.120;2023-07-22T09:05:05;13.97;;;8.20;;
19043;SDS011;9654;52.302;8.120;2023-07-22T09:07:34;13.13;;;8.13;;
19043;SDS011;9654;52.302;8.120;2023-07-22T09:10:01;10.67;;;7.00;;
19043;SDS011;9654;52.302;8.120;2023-07-22T09:12:28;12.67;;;7.10;;
19043;SDS011;9654;52.302;8.120;2023-07-22T09:14:56;10.73;;;6.87;;
19043;SDS011;9654;52.302;8.120;2023-07-22T09:17:24;13.93;;;7.57;;
19043;SDS011;9654;52.302;8.120;2023-07-22T09:19:51;10.27;;;7.27;;
19043;SDS011;9654;52.302;8.120;2023-07-22T09:22:18;10.10;;;7.27;;
19043;SDS011;9654;52.302;8.120;2023-07-22T09:24:52;13.07;;;7.73;;
19043;SDS011;9654;52.302;8.120;2023-07-22T09:27:27;10.53;;;6.90;;
19043;SDS011;9654;52.302;8.120;2023-07-22T09:29:59;12.37;;;6.90;;
19043;SDS011;9654;52.302;8.120;2023-07-22T09:32:34;12.00;;;6.53;;
19043;SDS011;9654;52.302;8.120;2023-07-22T09:35:02;11.53;;;6.13;;
19043;SDS011;9654;52.302;8.120;2023-07-22T09:37:35;9.63;;;5.77;;
19043;SDS011;9654;52.302;8.120;2023-07-22T09:40:06;9.93;;;6.10;;
19043;SDS011;9654;52.302;8.120;2023-07-22T09:42:42;10.30;;;6.40;;
19043;SDS011;9654;52.302;8.120;2023-07-22T09:45:13;12.77;;;6.73;;
19043;SDS011;9654;52.302;8.120;2023-07-22T09:47:40;10.13;;;6.50;;
19043;SDS011;9654;52.302;8.120;2023-07-22T09:50:10;11.00;;;6.23;;
19043;SDS011;9654;52.302;8.120;2023-07-22T09:52:44;13.70;;;6.53;;
19043;SDS011;9654;52.302;8.120;2023-07-22T09:55:16;9.40;;;6.90;;
19043;SDS011;9654;52.302;8.120;2023-07-22T09:57:45;8.07;;;5.63;;
19043;SDS011;9654;52.302;8.120;2023-07-22T10:00:13;10.83;;;6.60;;
19043;SDS011;9654;52.302;8.120;2023-07-22T10:02:41;11.33;;;7.53;;
19043;SDS011;9654;52.302;8.120;2023-07-22T10:05:13;14.83;;;7.03;;
19043;SDS011;9654;52.302;8.120;2023-07-22T10:07:45;11.83;;;6.80;;
19043;SDS011;9654;52.302;8.120;2023-07-22T10:10:16;9.03;;;6.47;;
19043;SDS011;9654;52.302;8.120;2023-07-22T10:12:44;10.63;;;6.03;;
19043;SDS011;9654;52.302;8.120;2023-07-22T10:15:12;10.40;;;6.07;;
19043;SDS011;9654;52.302;8.120;2023-07-22T10:17:40;9.73;;;6.37;;
19043;SDS011;9654;52.302;8.120;2023-07-22T10:20:08;10.33;;;6.90;;
19043;SDS011;9654;52.302;8.120;2023-07-22T10:22:40;10.37;;;6.47;;
19043;SDS011;9654;52.302;8.120;2023-07-22T10:25:08;10.63;;;6.80;;
19043;SDS011;9654;52.302;8.120;2023-07-22T10:27:37;11.60;;;6.93;;
19043;SDS011;9654;52.302;8.120;2023-07-22T10:30:06;12.33;;;7.60;;
19043;SDS011;9654;52.302;8.120;2023-07-22T10:32:34;12.43;;;7.37;;
19043;SDS011;9654;52.302;8.120;2023-07-22T10:35:03;16.87;;;7.30;;
19043;SDS011;9654;52.302;8.120;2023-07-22T10:37:31;11.80;;;7.10;;
19043;SDS011;9654;52.302;8.120;2023-07-22T10:39:59;11.97;;;7.07;;
19043;SDS011;9654;52.302;8.120;2023-07-22T10:42:27;10.27;;;6.13;;
19043;SDS011;9654;52.302;8.120;2023-07-22T10:45:00;12.13;;;7.20;;
19043;SDS011;9654;52.302;8.120;2023-07-22T10:47:31;16.83;;;8.03;;
19043;SDS011;9654;52.302;8.120;2023-07-22T10:50:04;10.70;;;7.00;;
19043;SDS011;9654;52.302;8.120;2023-07-22T10:52:43;15.30;;;7.27;;
19043;SDS011;9654;52.302;8.120;2023-07-22T10:55:15;14.40;;;7.43;;
19043;SDS011;9654;52.302;8.120;2023-07-22T10:57:49;13.33;;;7.60;;
19043;SDS011;9654;52.302;8.120;2023-07-22T11:00:19;13.07;;;8.37;;
19043;SDS011;9654;52.302;8.120;2023-07-22T11:02:47;12.27;;;7.73;;
19043;SDS011;9654;52.302;8.120;2023-07-22T11:05:47;10.80;;;6.57;;
19043;SDS011;9654;52.302;8.120;2023-07-22T11:08:15;10.87;;;7.37;;
19043;SDS011;9654;52.302;8.120;2023-07-22T11:10:51;10.63;;;7.30;;
19043;SDS011;9654;52.302;8.120;2023-07-22T11:13:19;14.03;;;8.20;;
19043;SDS011;9654;52.302;8.120;2023-07-22T11:15:54;12.80;;;7.77;;
19043;SDS011;9654;52.302;8.120;2023-07-22T11:18:34;13.43;;;7.87;;
19043;SDS011;9654;52.302;8.120;2023-07-22T11:21:06;10.67;;;7.93;;
19043;SDS011;9654;52.302;8.120;2023-07-22T11:23:33;22.60;;;8.20;;
19043;SDS011;9654;52.302;8.120;2023-07-22T11:26:02;13.60;;;8.33;;
19043;SDS011;9654;52.302;8.120;2023-07-22T11:28:30;12.87;;;7.33;;
19043;SDS011;9654;52.302;8.120;2023-07-22T11:30:58;13.47;;;7.20;;
19043;SDS011;9654;52.302;8.120;2023-07-22T11:33:25;11.07;;;7.10;;
19043;SDS011;9654;52.302;8.120;2023-07-22T11:36:03;13.07;;;7.53;;
19043;SDS011;9654;52.302;8.120;2023-07-22T11:38:30;10.70;;;7.73;;
19043;SDS011;9654;52.302;8.120;2023-07-22T11:40:56;10.07;;;6.80;;
19043;SDS011;9654;52.302;8.120;2023-07-22T11:43:24;11.63;;;7.00;;
19043;SDS011;9654;52.302;8.120;2023-07-22T11:45:51;10.23;;;7.07;;
19043;SDS011;9654;52.302;8.120;2023-07-22T11:48:19;10.20;;;6.10;;
19043;SDS011;9654;52.302;8.120;2023-07-22T11:50:46;12.40;;;7.10;;
19043;SDS011;9654;52.302;8.120;2023-07-22T11:53:13;11.77;;;6.83;;
19043;SDS011;9654;52.302;8.120;2023-07-22T11:55:40;9.57;;;6.37;;
19043;SDS011;9654;52.302;8.120;2023-07-22T11:58:07;16.13;;;7.57;;
19043;SDS011;9654;52.302;8.120;2023-07-22T12:00:34;12.67;;;7.17;;
19043;SDS011;9654;52.302;8.120;2023-07-22T12:03:04;9.80;;;6.57;;
19043;SDS011;9654;52.302;8.120;2023-07-22T12:05:34;9.13;;;6.60;;
19043;SDS011;9654;52.302;8.120;2023-07-22T12:08:02;12.20;;;6.37;;
19043;SDS011;9654;52.302;8.120;2023-07-22T12:10:31;8.50;;;6.07;;
19043;SDS011;9654;52.302;8.120;2023-07-22T12:13:00;8.17;;;5.80;;
19043;SDS011;9654;52.302;8.120;2023-07-22T12:15:27;8.83;;;6.30;;
19043;SDS011;9654;52.302;8.120;2023-07-22T12:17:54;10.97;;;5.90;;
19043;SDS011;9654;52.302;8.120;2023-07-22T12:20:23;8.27;;;6.03;;
19043;SDS011;9654;52.302;8.120;2023-07-22T12:22:53;8.70;;;6.10;;
19043;SDS011;9654;52.302;8.120;2023-07-22T12:25:20;7.70;;;5.50;;
19043;SDS011;9654;52.302;8.120;2023-07-22T12:27:47;8.97;;;5.23;;
19043;SDS011;9654;52.302;8.120;2023-07-22T12:30:14;8.97;;;5.10;;
19043;SDS011;9654;52.302;8.120;2023-07-22T12:32:42;7.40;;;4.33;;
19043;SDS011;9654;52.302;8.120;2023-07-22T12:35:08;6.63;;;3.83;;
19043;SDS011;9654;52.302;8.120;2023-07-22T12:37:36;8.37;;;4.60;;
19043;SDS011;9654;52.302;8.120;2023-07-22T12:40:04;10.83;;;5.13;;
19043;SDS011;9654;52.302;8.120;2023-07-22T12:42:33;8.50;;;4.07;;
19043;SDS011;9654;52.302;8.120;2023-07-22T12:45:00;6.70;;;4.30;;
19043;SDS011;9654;52.302;8.120;2023-07-22T12:47:26;5.43;;;4.17;;
19043;SDS011;9654;52.302;8.120;2023-07-22T12:49:53;7.47;;;4.40;;
19043;SDS011;9654;52.302;8.120;2023-07-22T12:52:20;5.73;;;4.30;;
19043;SDS011;9654;52.302;8.120;2023-07-22T12:54:47;7.07;;;4.10;;
19043;SDS011;9654;52.302;8.120;2023-07-22T12:57:15;6.13;;;4.30;;
19043;SDS011;9654;52.302;8.120;2023-07-22T12:59:41;6.87;;;4.77;;
19043;SDS011;9654;52.302;8.120;2023-07-22T13:02:08;8.30;;;5.17;;
19043;SDS011;9654;52.302;8.120;2023-07-22T13:04:35;6.07;;;4.53;;
19043;SDS011;9654;52.302;8.120;2023-07-22T13:07:02;5.73;;;4.17;;
19043;SDS011;9654;52.302;8.120;2023-07-22T13:09:29;5.10;;;4.07;;
19043;SDS011;9654;52.302;8.120;2023-07-22T13:11:56;6.10;;;4.20;;
19043;SDS011;9654;52.302;8.120;2023-07-22T13:14:24;5.97;;;3.90;;
19043;SDS011;9654;52.302;8.120;2023-07-22T13:16:57;6.00;;;4.43;;
19043;SDS011;9654;52.302;8.120;2023-07-22T13:19:23;6.93;;;4.37;;
19043;SDS011;9654;52.302;8.120;2023-07-22T13:21:50;5.60;;;3.60;;
19043;SDS011;9654;52.302;8.120;2023-07-22T13:24:17;8.07;;;4.27;;
19043;SDS011;9654;52.302;8.120;2023-07-22T13:26:46;4.70;;;3.80;;
19043;SDS011;9654;52.302;8.120;2023-07-22T13:29:13;6.07;;;4.20;;
19043;SDS011;9654;52.302;8.120;2023-07-22T13:31:41;5.93;;;4.37;;
19043;SDS011;9654;52.302;8.120;2023-07-22T13:34:08;4.30;;;3.90;;
19043;SDS011;9654;52.302;8.120;2023-07-22T13:36:35;5.63;;;3.77;;
19043;SDS011;9654;52.302;8.120;2023-07-22T13:39:02;7.03;;;4.63;;
19043;SDS011;9654;52.302;8.120;2023-07-22T13:41:29;6.30;;;4.30;;
19043;SDS011;9654;52.302;8.120;2023-07-22T13:43:55;7.30;;;4.10;;
19043;SDS011;9654;52.302;8.120;2023-07-22T13:46:22;5.37;;;4.50;;
19043;SDS011;9654;52.302;8.120;2023-07-22T13:48:50;6.13;;;4.00;;
19043;SDS011;9654;52.302;8.120;2023-07-22T13:51:17;5.10;;;4.13;;
19043;SDS011;9654;52.302;8.120;2023-07-22T13:53:44;5.77;;;4.50;;
19043;SDS011;9654;52.302;8.120;2023-07-22T13:56:10;7.43;;;4.27;;
19043;SDS011;9654;52.302;8.120;2023-07-22T13:58:37;4.80;;;3.83;;
19043;SDS011;9654;52.302;8.120;2023-07-22T14:01:04;5.37;;;4.40;;
19043;SDS011;9654;52.302;8.120;2023-07-22T14:03:31;8.43;;;4.70;;
19043;SDS011;9654;52.302;8.120;2023-07-22T14:05:59;8.30;;;4.60;;
19043;SDS011;9654;52.302;8.120;2023-07-22T14:08:26;6.17;;;4.40;;
19043;SDS011;9654;52.302;8.120;2023-07-22T14:10:53;5.50;;;4.53;;
19043;SDS011;9654;52.302;8.120;2023-07-22T14:13:20;7.53;;;4.50;;
19043;SDS011;9654;52.302;8.120;2023-07-22T14:15:47;6.30;;;4.50;;
19043;SDS011;9654;52.302;8.120;2023-07-22T14:18:14;9.00;;;5.07;;
19043;SDS011;9654;52.302;8.120;2023-07-22T14:20:42;7.00;;;5.10;;
19043;SDS011;9654;52.302;8.120;2023-07-22T14:23:11;8.63;;;5.07;;
19043;SDS011;9654;52.302;8.120;2023-07-22T14:25:37;7.97;;;5.67;;
19043;SDS011;9654;52.302;8.120;2023-07-22T14:28:04;10.57;;;6.33;;
19043;SDS011;9654;52.302;8.120;2023-07-22T14:30:31;10.53;;;5.93;;
19043;SDS011;9654;52.302;8.120;2023-07-22T14:32:58;7.73;;;5.63;;
19043;SDS011;9654;52.302;8.120;2023-07-22T14:35:25;9.73;;;5.83;;
19043;SDS011;9654;52.302;8.120;2023-07-22T14:37:52;10.67;;;6.37;;
19043;SDS011;9654;52.302;8.120;2023-07-22T14:40:20;9.93;;;6.17;;
19043;SDS011;9654;52.302;8.120;2023-07-22T14:42:47;8.20;;;5.83;;
19043;SDS011;9654;52.302;8.120;2023-07-22T14:45:13;10.07;;;5.80;;
19043;SDS011;9654;52.302;8.120;2023-07-22T14:47:40;10.27;;;5.10;;